EETN/TLL METAR and TAF weather

Enter ICAO airport designator
Station Type Date Time Source
EETN METAR 2019/02/23 02:20 UTC NOAA

EETN 230220Z 24015KT 7000 -SN DRSN FEW013 BKN041 M02/M04 Q1033 R08/19//95


Station Type Date Time Source
EETN Decoded METAR 2019/02/23 02:20 UTC NOAA

Tallinn, Estonia (EETN) 59-24N 024-49E 34M
Feb 22, 2019 - 09:20 PM EST / 2019.02.23 0220 UTC
Wind: from the WSW (240 degrees) at 17 MPH (15 KT):0
Visibility: 4 mile(s):0
Sky conditions: mostly cloudy
Weather: light snow; low drifting snow
Temperature: 28 F (-2 C)
Windchill: 15 F (-9 C):1
Dew Point: 24 F (-4 C)
Relative Humidity: 86%
Pressure (altimeter): 30.50 in. Hg (1033 hPa)
ob: EETN 230220Z 24015KT 7000 -SN DRSN FEW013 BKN041 M02/M04 Q1033 R08/19//95
cycle: 2

Station Type Date Time Source
EETN TAF 2019/02/22 18:03 UTC NOAA

TAF TAF EETN 221700Z 2218/2318 25006KT CAVOK
BECMG 2223/2224 26016KT 3000 SN BKN015
TEMPO 2300/2303 1200 +SHSN BLSN SCT004 BKN013CB
TEMPO 2302/2311 27018G30KT
TEMPO 2303/2306 3000 SG FZRA BKN005 OVC010
BECMG 2307/2309 9999 NSW BKN008


Example: see airport list